Time;durP1;ratioP1;P1;durP2;ratioP2;P2;SDS_P1;SDS_P2;PMS_P1;PMS_P2;Temp;Humidity;BMP_temperature;BMP_pressure;BME280_temperature;BME280_humidity;BME280_pressure;Samples;Min_cycle;Max_cycle;Signal;HPM_P1;HPM_P2
2021/07/22 00:02:26;;;;;;;9.40;3.80;;;15.50;80.90;;;;;;6217325;23;20016;-75
2021/07/22 00:04:56;;;;;;;;;;;15.50;80.90;;;;;;6220871;23;20025;-75
2021/07/22 00:07:30;;;;;;;8.93;3.33;;;15.40;81.20;;;;;;6220476;23;19935;-75
2021/07/22 00:10:06;;;;;;;8.48;3.25;;;15.40;81.10;;;;;;6196516;23;20247;-76
2021/07/22 00:12:34;;;;;;;7.28;3.03;;;15.30;81.20;;;;;;6222113;23;20256;-76
2021/07/22 00:15:02;;;;;;;9.70;3.45;;;15.30;81.30;;;;;;6225277;23;20043;-75
2021/07/22 00:17:29;;;;;;;6.43;2.75;;;15.40;81.30;;;;;;6197953;23;20036;-75
2021/07/22 00:19:56;;;;;;;8.45;3.47;;;15.30;81.40;;;;;;6222325;23;20044;-75
2021/07/22 00:22:24;;;;;;;8.00;3.03;;;15.20;81.50;;;;;;6221697;23;20059;-76
2021/07/22 00:24:51;;;;;;;6.22;2.80;;;15.20;81.10;;;;;;6221296;23;20061;-75
2021/07/22 00:27:20;;;;;;;8.05;2.97;;;15.20;81.10;;;;;;6218777;23;20012;-75
2021/07/22 00:29:48;;;;;;;6.80;3.13;;;15.10;81.20;;;;;;6221535;23;20032;-75
2021/07/22 00:32:16;;;;;;;5.97;2.70;;;15.10;81.50;;;;;;6221038;23;20332;-74
2021/07/22 00:34:43;;;;;;;8.48;3.65;;;15.00;81.50;;;;;;6191657;23;20231;-77
2021/07/22 00:37:10;;;;;;;5.90;2.72;;;15.10;81.50;;;;;;6194807;23;20020;-76
2021/07/22 00:39:38;;;;;;;8.63;3.22;;;14.90;81.70;;;;;;6219860;23;20024;-76
2021/07/22 00:42:06;;;;;;;5.72;3.10;;;14.80;82.00;;;;;;6219627;23;20044;-75
2021/07/22 00:44:36;;;;;;;5.80;2.45;;;14.80;82.40;;;;;;6193763;23;20335;-76
2021/07/22 00:47:05;;;;;;;9.90;3.25;;;14.70;82.40;;;;;;6221055;23;20029;-76
2021/07/22 00:49:33;;;;;;;7.78;3.33;;;14.70;82.40;;;;;;6221069;23;20347;-75
2021/07/22 00:52:02;;;;;;;7.70;2.65;;;14.70;82.50;;;;;;6219151;23;20031;-75
2021/07/22 00:54:37;;;;;;;6.50;2.95;;;14.70;82.70;;;;;;6190825;23;20051;-75
2021/07/22 00:57:05;;;;;;;8.00;3.45;;;14.60;82.90;;;;;;6193979;23;20100;-75
2021/07/22 00:59:32;;;;;;;6.82;2.92;;;14.60;82.90;;;;;;6189917;23;20028;-75
2021/07/22 01:02:04;;;;;;;6.22;2.92;;;14.60;82.80;;;;;;6213639;23;20324;-76
2021/07/22 01:04:37;;;;;;;5.43;2.65;;;14.50;82.80;;;;;;6189724;23;20020;-75
2021/07/22 01:07:05;;;;;;;9.63;3.30;;;14.50;82.90;;;;;;6187895;23;20020;-75
2021/07/22 01:09:33;;;;;;;7.07;2.80;;;14.40;82.80;;;;;;6191959;23;20271;-75
2021/07/22 01:12:01;;;;;;;5.40;2.40;;;14.40;83.00;;;;;;6195038;23;20028;-76
2021/07/22 01:14:29;;;;;;;7.13;3.03;;;14.40;83.10;;;;;;6222113;23;20024;-76
2021/07/22 01:17:10;;;;;;;7.00;2.75;;;14.40;82.90;;;;;;6194809;23;20092;-76
2021/07/22 01:19:38;;;;;;;7.22;3.17;;;14.40;83.00;;;;;;6194919;23;20021;-76
2021/07/22 01:22:07;;;;;;;8.70;3.92;;;14.30;83.20;;;;;;6221839;23;20071;-76
2021/07/22 01:24:35;;;;;;;8.13;3.05;;;14.30;83.10;;;;;;6221976;23;20340;-75
2021/07/22 01:27:06;;;;;;;6.32;2.70;;;14.30;83.20;;;;;;6194642;23;20031;-75
2021/07/22 01:29:59;;;;;;;5.32;2.50;;;14.30;83.30;;;;;;6213366;23;20352;-75
2021/07/22 01:32:26;;;;;;;7.25;3.03;;;14.30;83.50;;;;;;6193823;23;20043;-76
2021/07/22 01:34:54;;;;;;;7.07;3.67;;;14.20;83.60;;;;;;6194636;23;20032;-75
2021/07/22 01:37:26;;;;;;;7.40;3.17;;;14.30;83.90;;;;;;6195567;23;20028;-75
2021/07/22 01:39:54;;;;;;;12.97;4.63;;;14.30;84.00;;;;;;6221999;23;20041;-75
2021/07/22 01:42:22;;;;;;;9.20;3.45;;;14.40;84.20;;;;;;6193923;23;20088;-75
2021/07/22 01:44:49;;;;;;;7.13;3.15;;;14.30;84.30;;;;;;6221126;23;20078;-75
2021/07/22 01:47:18;;;;;;;6.68;3.28;;;14.30;84.10;;;;;;6195441;23;20327;-75
2021/07/22 01:49:47;;;;;;;6.57;2.88;;;14.30;84.00;;;;;;6193054;23;20033;-75
2021/07/22 01:52:15;;;;;;;6.95;2.65;;;14.30;84.00;;;;;;6193443;23;20267;-75
2021/07/22 01:54:46;;;;;;;7.38;2.97;;;14.30;84.20;;;;;;6188625;23;20029;-76
2021/07/22 01:57:16;;;;;;;7.68;3.05;;;14.20;84.00;;;;;;6191878;23;20047;-76
2021/07/22 01:59:44;;;;;;;9.15;4.28;;;14.20;84.20;;;;;;6193152;23;20189;-76
2021/07/22 02:02:12;;;;;;;8.30;3.65;;;14.10;84.30;;;;;;6214166;23;20017;-75
2021/07/22 02:04:42;;;;;;;7.93;2.97;;;14.10;84.50;;;;;;6219633;23;20503;-76
2021/07/22 02:07:11;;;;;;;7.72;3.13;;;14.10;84.50;;;;;;6191198;23;20032;-76
2021/07/22 02:09:53;;;;;;;10.15;3.78;;;14.10;84.50;;;;;;6218217;23;20024;-76
2021/07/22 02:12:20;;;;;;;10.48;4.65;;;14.10;84.50;;;;;;6192317;23;20394;-76
2021/07/22 02:14:50;;;;;;;11.10;3.75;;;14.10;84.40;;;;;;6218768;23;20028;-75
2021/07/22 02:17:18;;;;;;;8.88;3.90;;;14.10;84.50;;;;;;6213441;23;20044;-76
2021/07/22 02:19:47;;;;;;;8.70;3.70;;;14.10;84.50;;;;;;6187713;23;20044;-75
2021/07/22 02:22:16;;;;;;;8.75;4.05;;;14.10;84.40;;;;;;6189129;23;20313;-75
2021/07/22 02:24:56;;;;;;;9.50;3.63;;;14.10;84.70;;;;;;6188854;23;20080;-75
2021/07/22 02:27:35;;;;;;;7.50;3.20;;;14.00;84.70;;;;;;6188965;23;20328;-76
2021/07/22 02:30:05;;;;;;;10.82;3.88;;;13.90;84.90;;;;;;6213918;23;20320;-75
2021/07/22 02:32:33;;;;;;;;;;;13.80;85.40;;;;;;6215559;23;20044;-75
2021/07/22 02:35:00;;;;;;;9.32;3.25;;;13.80;85.50;;;;;;6189335;23;19962;-75
2021/07/22 02:37:49;;;;;;;10.25;3.78;;;13.70;85.60;;;;;;6215577;23;20231;-75
2021/07/22 02:40:22;;;;;;;7.65;3.75;;;13.70;85.70;;;;;;6189747;23;20048;-76
2021/07/22 02:42:50;;;;;;;7.65;3.78;;;13.70;85.90;;;;;;6188448;23;20020;-76
2021/07/22 02:45:20;;;;;;;7.03;3.03;;;13.70;85.90;;;;;;6191594;23;20194;-75
2021/07/22 02:47:47;;;;;;;9.48;4.03;;;13.70;85.80;;;;;;6217166;23;20304;-75
2021/07/22 02:50:14;;;;;;;7.07;3.25;;;13.70;85.80;;;;;;6190352;23;20063;-75
2021/07/22 02:52:45;;;;;;;8.20;3.33;;;13.60;86.00;;;;;;6188943;23;20398;-75
2021/07/22 02:55:14;;;;;;;8.13;3.45;;;13.60;86.00;;;;;;6213655;23;20252;-75
2021/07/22 02:57:43;;;;;;;7.65;3.30;;;13.60;85.80;;;;;;6211890;23;20032;-76
2021/07/22 03:00:10;;;;;;;6.97;3.38;;;13.70;85.60;;;;;;6211329;23;20024;-75
2021/07/22 03:02:38;;;;;;;8.00;3.28;;;13.70;85.90;;;;;;6188364;23;20028;-75
2021/07/22 03:05:06;;;;;;;9.20;3.55;;;13.60;85.90;;;;;;6193189;23;20055;-75
2021/07/22 03:07:35;;;;;;;6.82;3.13;;;13.60;86.00;;;;;;6190387;23;20122;-75
2021/07/22 03:10:04;;;;;;;9.35;3.17;;;13.60;86.00;;;;;;6188929;23;20020;-75
2021/07/22 03:12:34;;;;;;;;;;;13.60;85.90;;;;;;6192156;23;20024;-75
2021/07/22 03:15:04;;;;;;;8.20;3.50;;;13.50;85.90;;;;;;6189994;23;20285;-76
2021/07/22 03:17:36;;;;;;;8.75;3.58;;;13.50;86.20;;;;;;6189943;23;20083;-76
2021/07/22 03:20:05;;;;;;;8.90;4.45;;;13.50;86.20;;;;;;6190377;23;20380;-75
2021/07/22 03:23:01;;;;;;;6.57;3.40;;;13.40;86.40;;;;;;6211585;23;20287;-75
2021/07/22 03:25:38;;;;;;;8.45;3.35;;;13.40;86.10;;;;;;6191809;23;20035;-75
2021/07/22 03:28:21;;;;;;;6.18;2.65;;;13.40;86.10;;;;;;6189997;23;20547;-75
2021/07/22 03:31:08;;;;;;;7.55;3.70;;;13.40;86.00;;;;;;6216322;23;20063;-75
2021/07/22 03:33:44;;;;;;;9.38;3.97;;;13.40;86.10;;;;;;6191631;23;20056;-75
2021/07/22 03:36:20;;;;;;;8.55;3.28;;;13.40;86.00;;;;;;6191430;23;20332;-75
2021/07/22 03:39:01;;;;;;;7.32;3.67;;;13.40;86.20;;;;;;6190500;23;20075;-75
2021/07/22 03:41:34;;;;;;;8.73;3.38;;;13.40;86.40;;;;;;6217068;23;20032;-75
2021/07/22 03:44:12;;;;;;;10.38;4.13;;;13.40;86.20;;;;;;6190772;23;20062;-75
2021/07/22 03:46:41;;;;;;;7.22;3.33;;;13.40;86.10;;;;;;6190571;23;20074;-76
2021/07/22 03:49:12;;;;;;;7.97;3.20;;;13.40;86.20;;;;;;6192392;23;20070;-76
2021/07/22 03:51:39;;;;;;;6.75;3.08;;;13.30;86.20;;;;;;6215026;23;20032;-76
2021/07/22 03:54:07;;;;;;;8.13;3.42;;;13.30;86.40;;;;;;6191572;23;20051;-76
2021/07/22 03:56:35;;;;;;;6.55;3.40;;;13.40;86.10;;;;;;6219270;23;20189;-76
2021/07/22 03:59:07;;;;;;;7.28;3.17;;;13.40;86.20;;;;;;6187757;23;20027;-76
2021/07/22 04:01:38;;;;;;;8.02;3.42;;;13.40;86.00;;;;;;6209767;23;20074;-76
2021/07/22 04:04:16;;;;;;;9.38;3.50;;;13.40;85.90;;;;;;6190794;23;20352;-75
2021/07/22 04:06:44;;;;;;;6.00;3.13;;;13.40;86.10;;;;;;6216002;23;20322;-75
2021/07/22 04:09:21;;;;;;;8.85;3.28;;;13.40;86.10;;;;;;6187886;23;20020;-75
2021/07/22 04:11:58;;;;;;;10.68;3.47;;;13.40;86.00;;;;;;6191276;23;20106;-76
2021/07/22 04:14:46;;;;;;;6.72;3.53;;;13.40;86.00;;;;;;6154045;23;20032;-75
2021/07/22 04:17:31;;;;;;;6.32;2.95;;;13.40;86.00;;;;;;6220564;23;20092;-76
2021/07/22 04:20:15;;;;;;;7.57;3.55;;;13.50;85.90;;;;;;6217851;23;20038;-76
2021/07/22 04:22:52;;;;;;;8.68;3.53;;;13.50;85.90;;;;;;6194786;23;20098;-76
2021/07/22 04:25:31;;;;;;;7.88;3.38;;;13.50;85.90;;;;;;6191515;23;20012;-76
2021/07/22 04:28:06;;;;;;;9.68;3.78;;;13.60;85.50;;;;;;6221074;23;20047;-76
2021/07/22 04:30:48;;;;;;;8.75;2.95;;;13.60;85.20;;;;;;2059562;23;10021770;-75
2021/07/22 04:33:23;;;;;;;9.45;3.28;;;13.60;85.20;;;;;;4908440;23;10001091;-76
2021/07/22 04:36:05;;;;;;;9.98;3.58;;;13.60;85.20;;;;;;6188614;23;20016;-76
2021/07/22 04:38:53;;;;;;;6.93;2.58;;;13.70;85.10;;;;;;6128490;23;20552;-75
2021/07/22 04:41:37;;;;;;;9.40;3.20;;;13.70;84.90;;;;;;6158532;23;20029;-76
2021/07/22 04:44:11;;;;;;;5.65;2.95;;;13.80;84.60;;;;;;6188115;23;20013;-75
2021/07/22 04:46:57;;;;;;;7.50;3.25;;;13.70;84.70;;;;;;6191185;23;20232;-75
2021/07/22 04:49:42;;;;;;;9.23;3.30;;;13.80;84.90;;;;;;6190765;23;20055;-75
2021/07/22 04:52:20;;;;;;;7.72;2.97;;;13.80;84.80;;;;;;6190676;23;20072;-75
2021/07/22 04:55:00;;;;;;;7.72;3.28;;;13.90;84.70;;;;;;6190010;23;20316;-75
2021/07/22 04:57:29;;;;;;;10.63;4.28;;;13.90;84.60;;;;;;6189026;23;20021;-75
2021/07/22 04:59:58;;;;;;;7.93;3.17;;;14.00;84.60;;;;;;6191788;23;20103;-75
2021/07/22 05:02:31;;;;;;;7.78;4.13;;;14.00;84.50;;;;;;6189671;23;20029;-75
2021/07/22 05:04:58;;;;;;;8.32;3.85;;;14.10;84.50;;;;;;6188745;23;20075;-75
2021/07/22 05:07:28;;;;;;;8.77;3.78;;;14.10;84.40;;;;;;6164268;23;20028;-76
2021/07/22 05:10:12;;;;;;;6.93;3.35;;;14.20;84.00;;;;;;6189857;23;20028;-75
2021/07/22 05:12:58;;;;;;;10.77;3.85;;;14.20;83.90;;;;;;6189018;23;20066;-76
2021/07/22 05:15:43;;;;;;;8.00;3.35;;;14.30;83.90;;;;;;6164492;23;20029;-73
2021/07/22 05:18:39;;;;;;;7.47;3.70;;;14.40;83.60;;;;;;6173586;23;20056;-78
2021/07/22 05:21:26;;;;;;;7.32;2.92;;;14.40;83.50;;;;;;6164764;23;20024;-76
2021/07/22 05:24:04;;;;;;;8.85;3.35;;;14.40;83.50;;;;;;6189795;23;20340;-76
2021/07/22 05:26:44;;;;;;;8.15;3.35;;;14.50;83.40;;;;;;6162198;23;20029;-76
2021/07/22 05:29:31;;;;;;;7.15;3.55;;;14.60;83.30;;;;;;6172489;23;20036;-76
2021/07/22 05:32:09;;;;;;;6.80;3.38;;;14.60;83.20;;;;;;6214853;23;20028;-76
2021/07/22 05:34:48;;;;;;;8.80;3.53;;;14.70;82.90;;;;;;6190869;23;20017;-76
2021/07/22 05:37:44;;;;;;;7.85;3.45;;;14.70;82.60;;;;;;6197717;23;20275;-76
2021/07/22 05:40:14;;;;;;;8.95;3.22;;;14.80;82.60;;;;;;6191862;23;20024;-76
2021/07/22 05:42:43;;;;;;;7.97;3.58;;;14.90;82.50;;;;;;6191849;23;20055;-76
2021/07/22 05:45:11;;;;;;;8.98;3.40;;;15.00;82.60;;;;;;6190337;23;20044;-76
2021/07/22 05:47:38;;;;;;;11.40;3.95;;;15.10;82.30;;;;;;6185667;23;20017;-76
2021/07/22 05:50:06;;;;;;;10.77;3.75;;;15.10;82.20;;;;;;6188752;23;20351;-76
2021/07/22 05:52:33;;;;;;;10.10;3.75;;;15.20;82.00;;;;;;6211592;23;20020;-75
2021/07/22 05:55:00;;;;;;;9.57;4.15;;;15.20;81.80;;;;;;6184805;23;20313;-75
2021/07/22 05:57:35;;;;;;;24.20;7.20;;;15.40;81.80;;;;;;6187847;23;20116;-76
2021/07/22 06:00:03;;;;;;;20.55;8.23;;;15.50;81.20;;;;;;6188430;23;20304;-76
2021/07/22 06:02:39;;;;;;;19.20;8.20;;;15.60;81.10;;;;;;6185189;23;20032;-76
2021/07/22 06:05:07;;;;;;;11.60;5.18;;;15.70;81.00;;;;;;6185468;23;20028;-76
2021/07/22 06:07:34;;;;;;;10.13;3.85;;;15.70;80.40;;;;;;6190668;23;20060;-76
2021/07/22 06:10:02;;;;;;;7.80;4.38;;;15.80;80.50;;;;;;6187305;23;20076;-76
2021/07/22 06:12:32;;;;;;;8.27;4.40;;;15.80;80.50;;;;;;6185776;23;20020;-76
2021/07/22 06:14:59;;;;;;;12.35;6.03;;;16.00;80.40;;;;;;6185849;23;20047;-76
2021/07/22 06:17:26;;;;;;;11.65;4.15;;;16.00;80.00;;;;;;6210744;23;20124;-76
2021/07/22 06:19:53;;;;;;;9.15;3.67;;;16.10;79.90;;;;;;6187994;23;20025;-76
2021/07/22 06:22:21;;;;;;;10.55;3.58;;;16.20;79.60;;;;;;6185704;23;20017;-75
2021/07/22 06:24:48;;;;;;;10.30;4.30;;;16.30;79.40;;;;;;6187222;23;20021;-75
2021/07/22 06:27:15;;;;;;;9.45;3.80;;;16.30;79.40;;;;;;6187400;23;20017;-75
2021/07/22 06:29:44;;;;;;;7.72;3.33;;;16.40;79.20;;;;;;6186989;23;20017;-76
2021/07/22 06:32:11;;;;;;;9.85;3.80;;;16.50;79.20;;;;;;6186861;23;20032;-76
2021/07/22 06:34:38;;;;;;;8.43;3.72;;;16.60;78.80;;;;;;6211913;23;20348;-76
2021/07/22 06:37:05;;;;;;;8.68;3.78;;;16.70;78.30;;;;;;6188408;23;20017;-76
2021/07/22 06:39:39;;;;;;;9.27;3.83;;;16.90;78.50;;;;;;6213295;23;20101;-76
2021/07/22 06:42:06;;;;;;;7.72;3.10;;;17.00;78.10;;;;;;6209684;23;20035;-76
2021/07/22 06:44:33;;;;;;;12.32;3.70;;;17.00;77.70;;;;;;6213409;23;20052;-76
2021/07/22 06:47:02;;;;;;;8.45;3.72;;;17.00;77.70;;;;;;6212288;23;20051;-76
2021/07/22 06:49:31;;;;;;;;;;;16.90;78.10;;;;;;6190376;23;20017;-76
2021/07/22 06:52:00;;;;;;;7.13;3.05;;;17.10;78.30;;;;;;6189107;23;19912;-75
2021/07/22 06:54:29;;;;;;;10.00;3.72;;;17.40;77.70;;;;;;6188627;23;20025;-75
2021/07/22 06:56:56;;;;;;;6.93;3.28;;;17.60;76.80;;;;;;6212094;23;20028;-75
2021/07/22 06:59:23;;;;;;;8.05;4.00;;;17.70;76.40;;;;;;6188415;23;20079;-73
2021/07/22 07:01:50;;;;;;;9.65;4.28;;;17.90;76.30;;;;;;6184308;23;20036;-73
2021/07/22 07:04:19;;;;;;;9.68;3.75;;;17.90;75.80;;;;;;6211031;23;20025;-75
2021/07/22 07:06:46;;;;;;;9.27;3.72;;;18.10;75.40;;;;;;6188507;23;20043;-74
2021/07/22 07:09:13;;;;;;;8.43;3.65;;;18.20;74.90;;;;;;6188883;23;20420;-74
2021/07/22 07:11:40;;;;;;;7.43;3.22;;;18.30;73.50;;;;;;6189001;23;20040;-75
2021/07/22 07:14:07;;;;;;;6.90;4.00;;;18.40;73.80;;;;;;6190074;23;20021;-76
2021/07/22 07:16:34;;;;;;;9.85;3.45;;;18.60;73.60;;;;;;6189370;23;20025;-75
2021/07/22 07:19:01;;;;;;;9.02;3.75;;;18.70;72.80;;;;;;6189588;23;20325;-75
2021/07/22 07:21:32;;;;;;;8.93;3.33;;;18.80;72.00;;;;;;6188135;23;20036;-75
2021/07/22 07:23:59;;;;;;;9.93;3.72;;;19.10;71.20;;;;;;6189104;23;20025;-74
2021/07/22 07:26:26;;;;;;;7.93;3.20;;;19.30;70.60;;;;;;6189604;23;20029;-74
2021/07/22 07:28:53;;;;;;;7.22;3.38;;;19.30;70.10;;;;;;6187920;23;20025;-74
2021/07/22 07:31:22;;;;;;;8.27;3.35;;;19.50;69.80;;;;;;6213978;23;20348;-74
2021/07/22 07:33:50;;;;;;;8.68;3.60;;;19.60;69.80;;;;;;6190417;23;20031;-75
2021/07/22 07:36:17;;;;;;;6.97;3.00;;;19.60;69.10;;;;;;6188180;23;20044;-73
2021/07/22 07:38:46;;;;;;;9.90;3.80;;;19.80;69.20;;;;;;6187897;23;20017;-75
2021/07/22 07:41:13;;;;;;;5.97;3.03;;;20.00;68.00;;;;;;6183204;23;20044;-75
2021/07/22 07:43:40;;;;;;;8.02;3.05;;;20.00;67.80;;;;;;6187345;23;20040;-76
2021/07/22 07:46:07;;;;;;;6.25;2.50;;;20.10;68.10;;;;;;6210909;23;20037;-76
2021/07/22 07:48:36;;;;;;;7.35;3.42;;;20.30;67.50;;;;;;6184958;23;20072;-76
2021/07/22 07:51:05;;;;;;;7.82;3.53;;;20.50;65.40;;;;;;6189043;23;20017;-75
2021/07/22 07:53:32;;;;;;;9.85;3.80;;;20.70;63.90;;;;;;6187266;23;20029;-77
2021/07/22 07:56:02;;;;;;;9.50;3.58;;;20.80;64.30;;;;;;6211658;23;20025;-74
2021/07/22 07:58:30;;;;;;;;;;;21.10;64.40;;;;;;6189089;23;20316;-76
2021/07/22 08:00:57;;;;;;;8.48;3.65;;;21.30;64.50;;;;;;6207811;23;19926;-75
2021/07/22 08:03:24;;;;;;;8.02;4.22;;;21.60;62.30;;;;;;6187393;23;20298;-75
2021/07/22 08:05:52;;;;;;;6.70;3.15;;;21.60;59.40;;;;;;6189285;23;20060;-75
2021/07/22 08:08:20;;;;;;;8.93;3.70;;;21.70;60.40;;;;;;6187475;23;20025;-75
2021/07/22 08:10:47;;;;;;;8.75;3.88;;;21.90;59.60;;;;;;6189281;23;20021;-75
2021/07/22 08:13:16;;;;;;;9.88;4.15;;;21.90;59.60;;;;;;6189862;23;20013;-75
2021/07/22 08:15:44;;;;;;;10.50;4.25;;;21.90;58.10;;;;;;6188509;23;20032;-75
2021/07/22 08:18:11;;;;;;;8.68;3.97;;;22.10;58.70;;;;;;6189128;23;20309;-74
2021/07/22 08:20:39;;;;;;;7.38;4.15;;;22.00;59.20;;;;;;6189965;23;20040;-75
2021/07/22 08:23:06;;;;;;;8.40;4.05;;;22.00;58.50;;;;;;6189472;23;20325;-75
2021/07/22 08:25:33;;;;;;;9.27;3.70;;;22.10;59.10;;;;;;6190349;23;20021;-75
2021/07/22 08:28:00;;;;;;;11.20;5.68;;;22.20;58.90;;;;;;6189352;23;20025;-75
2021/07/22 08:30:30;;;;;;;8.43;4.78;;;22.40;59.10;;;;;;6190025;23;20041;-75
2021/07/22 08:32:57;;;;;;;10.27;4.68;;;22.60;58.70;;;;;;6190456;23;20044;-75
2021/07/22 08:35:24;;;;;;;10.50;4.32;;;22.70;58.00;;;;;;6192157;23;20021;-74
2021/07/22 08:37:51;;;;;;;6.53;3.10;;;22.70;58.00;;;;;;6210057;23;20048;-75
2021/07/22 08:40:19;;;;;;;7.88;3.53;;;22.90;57.50;;;;;;6191774;23;20348;-75
2021/07/22 08:42:47;;;;;;;7.70;3.63;;;23.00;57.60;;;;;;6191742;23;20021;-75
2021/07/22 08:45:16;;;;;;;8.80;3.95;;;23.20;57.00;;;;;;6189768;23;20473;-75
2021/07/22 08:47:46;;;;;;;8.48;3.60;;;23.40;53.90;;;;;;6213532;23;20058;-75
2021/07/22 08:50:15;;;;;;;8.70;3.50;;;23.60;54.90;;;;;;6190944;23;20234;-75
2021/07/22 08:52:42;;;;;;;6.60;3.42;;;23.70;53.80;;;;;;6190818;23;20063;-74
2021/07/22 08:55:11;;;;;;;5.93;3.33;;;23.70;51.10;;;;;;6191045;23;20096;-74
2021/07/22 08:57:39;;;;;;;8.85;3.22;;;23.60;51.40;;;;;;6191640;23;20028;-76
2021/07/22 09:00:08;;;;;;;7.50;3.17;;;23.70;51.90;;;;;;6187039;23;20084;-76
2021/07/22 09:02:35;;;;;;;7.78;2.90;;;23.70;51.40;;;;;;6188777;23;20092;-76
2021/07/22 09:05:07;;;;;;;6.28;3.03;;;23.90;53.00;;;;;;6190557;23;20207;-76
2021/07/22 09:07:34;;;;;;;6.32;2.70;;;24.00;50.10;;;;;;6188942;23;20170;-75
2021/07/22 09:10:12;;;;;;;6.70;3.10;;;23.90;51.40;;;;;;6213670;23;20025;-76
2021/07/22 09:12:41;;;;;;;7.28;3.13;;;24.20;51.50;;;;;;6190692;23;20186;-74
2021/07/22 09:15:10;;;;;;;5.90;3.10;;;24.20;48.00;;;;;;6191043;23;20021;-74
2021/07/22 09:17:38;;;;;;;6.87;3.10;;;24.30;50.00;;;;;;6191278;23;20027;-75
2021/07/22 09:20:11;;;;;;;7.10;2.97;;;24.50;47.20;;;;;;6189317;23;20388;-75
2021/07/22 09:22:40;;;;;;;6.90;2.60;;;24.60;47.00;;;;;;6189996;23;20024;-75
2021/07/22 09:25:09;;;;;;;5.43;2.88;;;24.60;50.40;;;;;;6190296;23;20074;-75
2021/07/22 09:27:42;;;;;;;5.20;2.58;;;24.80;49.80;;;;;;6188183;23;20028;-74
2021/07/22 09:30:11;;;;;;;6.90;3.35;;;24.80;45.20;;;;;;6187739;23;20336;-74
2021/07/22 09:32:41;;;;;;;8.05;2.47;;;24.90;47.80;;;;;;6188946;23;20096;-76
2021/07/22 09:35:12;;;;;;;6.05;3.00;;;25.00;46.40;;;;;;6190614;23;20019;-75
2021/07/22 09:37:41;;;;;;;5.93;2.78;;;25.10;48.10;;;;;;6212507;23;20025;-75
2021/07/22 09:40:10;;;;;;;6.07;2.83;;;25.00;45.40;;;;;;6185405;23;20024;-75
2021/07/22 09:42:42;;;;;;;10.77;3.53;;;24.80;44.70;;;;;;6189470;23;20374;-75
2021/07/22 09:45:16;;;;;;;6.82;3.08;;;25.10;47.80;;;;;;6187901;23;20019;-75
2021/07/22 09:47:44;;;;;;;6.63;2.67;;;25.10;45.50;;;;;;6187981;23;20036;-75
2021/07/22 09:50:15;;;;;;;6.05;2.55;;;25.10;45.80;;;;;;6189763;23;20289;-76
2021/07/22 09:52:43;;;;;;;7.30;3.10;;;25.40;47.20;;;;;;6188684;23;20117;-75
2021/07/22 09:55:30;;;;;;;8.23;3.08;;;25.60;45.80;;;;;;6188015;23;20043;-76
2021/07/22 09:57:59;;;;;;;7.68;3.25;;;25.80;42.90;;;;;;6188763;23;20017;-76
2021/07/22 10:00:27;;;;;;;6.72;2.75;;;25.90;43.30;;;;;;6207936;23;20021;-76
2021/07/22 10:02:56;;;;;;;4.25;2.05;;;25.90;42.80;;;;;;6186952;23;20357;-75
2021/07/22 10:05:26;;;;;;;6.45;3.35;;;26.30;44.70;;;;;;6188611;23;20024;-76
2021/07/22 10:07:54;;;;;;;4.72;2.70;;;26.30;41.30;;;;;;6190766;23;20025;-75
2021/07/22 10:10:22;;;;;;;6.40;2.88;;;26.30;42.40;;;;;;6190912;23;20178;-75
2021/07/22 10:12:54;;;;;;;6.07;3.00;;;26.70;40.90;;;;;;6190060;23;20017;-75
2021/07/22 10:15:24;;;;;;;4.78;2.35;;;27.30;40.50;;;;;;6193481;23;20013;-75
2021/07/22 10:17:54;;;;;;;6.60;3.10;;;27.60;41.60;;;;;;6194103;23;20009;-75
2021/07/22 10:20:26;;;;;;;6.38;3.42;;;28.40;38.60;;;;;;6191561;23;20036;-75
2021/07/22 10:22:53;;;;;;;5.88;2.67;;;28.80;36.60;;;;;;6192969;23;20025;-75
2021/07/22 10:25:20;;;;;;;6.97;3.70;;;29.20;36.00;;;;;;6193507;23;20021;-75
2021/07/22 10:27:48;;;;;;;8.95;3.10;;;29.30;36.30;;;;;;6193200;23;20031;-76
2021/07/22 10:30:16;;;;;;;8.35;3.25;;;30.20;33.50;;;;;;6193340;23;20016;-73
2021/07/22 10:32:47;;;;;;;5.78;2.92;;;31.00;33.00;;;;;;6191871;23;20190;-75
2021/07/22 10:35:20;;;;;;;5.38;2.80;;;31.00;32.00;;;;;;6193255;23;20021;-75
2021/07/22 10:38:10;;;;;;;6.15;3.03;;;30.10;33.70;;;;;;6193909;23;20024;-75
2021/07/22 10:40:54;;;;;;;6.93;3.28;;;29.20;34.60;;;;;;6189686;23;20025;-75
2021/07/22 10:43:46;;;;;;;6.43;2.63;;;29.90;34.00;;;;;;6193292;23;20076;-74
2021/07/22 10:46:15;;;;;;;5.95;2.97;;;31.00;33.00;;;;;;6192805;23;20220;-74
2021/07/22 10:48:43;;;;;;;7.17;3.03;;;32.40;31.10;;;;;;6193032;23;20021;-74
2021/07/22 10:51:15;;;;;;;6.85;2.95;;;33.00;30.60;;;;;;6217439;23;20021;-75
2021/07/22 10:53:46;;;;;;;5.15;2.97;;;34.00;28.50;;;;;;6193108;23;20025;-75
2021/07/22 10:56:14;;;;;;;5.45;2.72;;;34.50;27.00;;;;;;6189670;23;20353;-75
2021/07/22 10:58:49;;;;;;;6.13;2.45;;;35.50;26.20;;;;;;6192845;23;20024;-74
2021/07/22 11:01:56;;;;;;;5.75;2.85;;;35.30;25.60;;;;;;6188531;23;20028;-74
2021/07/22 11:04:49;;;;;;;4.93;2.90;;;36.20;25.70;;;;;;6193813;23;20047;-76
2021/07/22 11:07:23;;;;;;;6.10;3.20;;;35.10;24.80;;;;;;6191920;23;20115;-74
2021/07/22 11:09:53;;;;;;;6.25;3.28;;;33.00;29.30;;;;;;6192541;23;20324;-73
2021/07/22 11:12:42;;;;;;;4.63;2.45;;;31.70;29.70;;;;;;6216090;23;20027;-73
2021/07/22 11:15:10;;;;;;;5.57;2.83;;;34.20;28.70;;;;;;6189775;23;20032;-74
2021/07/22 11:17:39;;;;;;;5.53;2.97;;;34.90;25.80;;;;;;6191129;23;20041;-75
2021/07/22 11:20:32;;;;;;;6.85;3.00;;;35.50;26.70;;;;;;6190953;23;20088;-75
2021/07/22 11:23:11;;;;;;;7.78;3.00;;;35.70;26.00;;;;;;6190712;23;20351;-75
2021/07/22 11:25:44;;;;;;;6.32;3.10;;;35.40;27.00;;;;;;6189305;23;20032;-75
2021/07/22 11:28:12;;;;;;;6.57;3.30;;;33.60;29.00;;;;;;6188969;23;20040;-74
2021/07/22 11:30:39;;;;;;;5.77;3.10;;;35.30;26.80;;;;;;6212823;23;20029;-74
2021/07/22 11:33:17;;;;;;;6.93;2.95;;;36.60;25.40;;;;;;6191151;23;20025;-74
2021/07/22 11:35:56;;;;;;;9.30;3.38;;;37.70;23.10;;;;;;6191604;23;20017;-76
2021/07/22 11:38:23;;;;;;;6.82;3.17;;;37.70;24.10;;;;;;6191346;23;20228;-73
2021/07/22 11:40:50;;;;;;;6.03;3.60;;;37.80;23.60;;;;;;6191041;23;20016;-75
2021/07/22 11:43:35;;;;;;;7.45;3.38;;;37.30;23.90;;;;;;6211245;23;20040;-75
2021/07/22 11:46:03;;;;;;;5.65;2.95;;;38.50;21.20;;;;;;6190074;23;20017;-76
2021/07/22 11:48:32;;;;;;;7.45;3.40;;;39.10;21.40;;;;;;6191143;23;20032;-75
2021/07/22 11:51:00;;;;;;;;;;;39.00;21.90;;;;;;6191062;23;20065;-76
2021/07/22 11:53:28;;;;;;;5.38;3.17;;;38.10;23.50;;;;;;6190877;23;19924;-75
2021/07/22 11:55:56;;;;;;;7.07;3.35;;;37.70;22.80;;;;;;6191199;23;20044;-75
2021/07/22 11:58:24;;;;;;;9.27;3.58;;;38.30;21.80;;;;;;6191098;23;20093;-74
2021/07/22 12:00:51;;;;;;;7.43;3.60;;;39.40;20.40;;;;;;6186714;23;20316;-75
2021/07/22 12:03:24;;;;;;;6.97;3.47;;;40.40;20.70;;;;;;6193168;23;20024;-76
2021/07/22 12:05:52;;;;;;;6.97;3.35;;;41.00;20.50;;;;;;6193503;23;20032;-76
2021/07/22 12:08:21;;;;;;;6.28;3.28;;;41.00;20.40;;;;;;6192502;23;20025;-77
2021/07/22 12:10:49;;;;;;;;;;;40.80;20.20;;;;;;6217648;23;20020;-77
2021/07/22 12:13:17;;;;;;;8.35;3.53;;;39.70;20.00;;;;;;6191588;23;19971;-78
2021/07/22 12:15:45;;;;;;;8.80;4.53;;;38.60;21.80;;;;;;6192541;23;20017;-77
2021/07/22 12:18:15;;;;;;;10.55;3.75;;;36.60;22.50;;;;;;6193146;23;20333;-77
2021/07/22 12:20:42;;;;;;;6.22;3.45;;;34.80;25.70;;;;;;6193254;23;20040;-77
2021/07/22 12:23:30;;;;;;;7.07;3.70;;;35.80;26.00;;;;;;6193637;23;20021;-76
2021/07/22 12:26:00;;;;;;;7.43;3.55;;;38.00;22.20;;;;;;6192858;23;20021;-76
2021/07/22 12:28:30;;;;;;;6.72;3.55;;;39.10;21.80;;;;;;6192359;23;20036;-76
2021/07/22 12:31:19;;;;;;;5.72;3.10;;;38.10;22.50;;;;;;6185809;23;20015;-76
2021/07/22 12:33:58;;;;;;;7.65;3.63;;;37.20;24.60;;;;;;6191080;23;20081;-77
2021/07/22 12:36:25;;;;;;;7.28;3.63;;;37.20;24.70;;;;;;6216790;23;20258;-77
2021/07/22 12:39:13;;;;;;;7.95;3.88;;;37.70;24.80;;;;;;6194458;23;20025;-77
2021/07/22 12:41:43;;;;;;;6.15;3.35;;;39.10;22.10;;;;;;6194407;23;20025;-76
2021/07/22 12:44:10;;;;;;;8.52;3.97;;;39.60;21.60;;;;;;6217053;23;20021;-76
2021/07/22 12:46:38;;;;;;;9.20;3.72;;;39.70;19.80;;;;;;6192783;23;20040;-76
2021/07/22 12:49:05;;;;;;;6.17;3.40;;;38.60;21.20;;;;;;6193769;23;20016;-76
2021/07/22 12:51:32;;;;;;;6.75;3.78;;;39.20;20.90;;;;;;6194017;23;20017;-76
2021/07/22 12:54:12;;;;;;;8.75;3.67;;;40.50;20.20;;;;;;6193073;23;20021;-76
2021/07/22 12:56:44;;;;;;;7.45;3.92;;;41.80;18.40;;;;;;6194994;23;20197;-77
2021/07/22 12:59:13;;;;;;;6.28;3.42;;;42.10;18.70;;;;;;6192297;23;20044;-76
2021/07/22 13:01:40;;;;;;;6.95;4.18;;;42.20;19.20;;;;;;6187542;23;20025;-77
2021/07/22 13:04:08;;;;;;;7.63;3.60;;;42.60;17.70;;;;;;6192337;23;20025;-76
2021/07/22 13:06:35;;;;;;;7.82;3.67;;;42.50;18.80;;;;;;6191911;23;20020;-76
2021/07/22 13:09:02;;;;;;;8.38;3.88;;;40.50;19.40;;;;;;6191785;23;20316;-76
2021/07/22 13:11:30;;;;;;;7.47;4.07;;;39.60;20.10;;;;;;6192020;23;20043;-77